Terminal Aerodrome Forecast
Issued by NWS Louisville, KY

Home | Current Version | Previous Version | Text Only | Print | Product List | Glossary On
Versions: 1 2 3 4 5 6 7 8 9 10 11 12 13
000
FTUS43 KLMK 301135
TAFBWG
TAF
KBWG 301135Z 3012/3112 18003KT 6SM BR BKN100
     FM301230 19006KT P6SM VCSH SCT045 BKN250
     FM301700 20008KT P6SM -SHRA VCTS SCT035CB BKN250
     FM302300 17005KT P6SM BKN250
     FM310900 VRB04KT 5SM BR BKN250=

USA.gov is the U.S. government's official web portal to all federal, state and local government web resources and services.